sensor_id;sensor_type;location;lat;lon;timestamp;temperature;humidity
52849;DHT22;38714;53.180;5.812;2023-08-20T00:01:57;16.70;99.90
52849;DHT22;38714;53.180;5.812;2023-08-20T00:04:26;16.70;99.90
52849;DHT22;38714;53.180;5.812;2023-08-20T00:06:53;16.70;99.90
52849;DHT22;38714;53.180;5.812;2023-08-20T00:09:19;16.70;99.90
52849;DHT22;38714;53.180;5.812;2023-08-20T00:11:45;16.60;99.90
52849;DHT22;38714;53.180;5.812;2023-08-20T00:14:17;16.60;99.90
52849;DHT22;38714;53.180;5.812;2023-08-20T00:16:43;16.60;99.90
52849;DHT22;38714;53.180;5.812;2023-08-20T00:19:10;16.60;99.90
52849;DHT22;38714;53.180;5.812;2023-08-20T00:21:41;16.60;99.90
52849;DHT22;38714;53.180;5.812;2023-08-20T00:24:07;16.60;99.90
52849;DHT22;38714;53.180;5.812;2023-08-20T00:26:33;16.60;99.90
52849;DHT22;38714;53.180;5.812;2023-08-20T00:28:59;16.60;99.90
52849;DHT22;38714;53.180;5.812;2023-08-20T00:31:24;16.60;99.90
52849;DHT22;38714;53.180;5.812;2023-08-20T00:33:50;16.60;99.90
52849;DHT22;38714;53.180;5.812;2023-08-20T00:36:16;16.60;99.90
52849;DHT22;38714;53.180;5.812;2023-08-20T00:38:41;16.50;99.90
52849;DHT22;38714;53.180;5.812;2023-08-20T00:41:07;16.50;99.90
52849;DHT22;38714;53.180;5.812;2023-08-20T00:43:32;16.50;99.90
52849;DHT22;38714;53.180;5.812;2023-08-20T00:45:59;16.50;99.90
52849;DHT22;38714;53.180;5.812;2023-08-20T00:48:25;16.40;99.90
52849;DHT22;38714;53.180;5.812;2023-08-20T00:50:51;16.40;99.90
52849;DHT22;38714;53.180;5.812;2023-08-20T00:53:17;16.40;99.90
52849;DHT22;38714;53.180;5.812;2023-08-20T00:55:43;16.40;99.90
52849;DHT22;38714;53.180;5.812;2023-08-20T00:58:10;16.30;99.90
52849;DHT22;38714;53.180;5.812;2023-08-20T01:00:36;16.30;99.90
52849;DHT22;38714;53.180;5.812;2023-08-20T01:03:01;16.30;99.90
52849;DHT22;38714;53.180;5.812;2023-08-20T01:05:32;16.30;99.90
52849;DHT22;38714;53.180;5.812;2023-08-20T01:13:03;16.20;99.90
52849;DHT22;38714;53.180;5.812;2023-08-20T01:15:29;16.20;99.90
52849;DHT22;38714;53.180;5.812;2023-08-20T01:17:55;16.20;99.90
52849;DHT22;38714;53.180;5.812;2023-08-20T01:20:27;16.20;99.90
52849;DHT22;38714;53.180;5.812;2023-08-20T01:28:30;16.20;99.90
52849;DHT22;38714;53.180;5.812;2023-08-20T01:30:58;16.20;99.90
52849;DHT22;38714;53.180;5.812;2023-08-20T01:33:24;16.20;99.90
52849;DHT22;38714;53.180;5.812;2023-08-20T01:35:51;16.10;99.90
52849;DHT22;38714;53.180;5.812;2023-08-20T01:38:17;16.10;99.90
52849;DHT22;38714;53.180;5.812;2023-08-20T01:40:43;16.00;99.90
52849;DHT22;38714;53.180;5.812;2023-08-20T01:43:08;16.00;99.90
52849;DHT22;38714;53.180;5.812;2023-08-20T01:45:34;16.00;99.90
52849;DHT22;38714;53.180;5.812;2023-08-20T01:48:00;16.00;99.90
52849;DHT22;38714;53.180;5.812;2023-08-20T01:50:25;16.00;99.90
52849;DHT22;38714;53.180;5.812;2023-08-20T01:52:51;16.00;99.90
52849;DHT22;38714;53.180;5.812;2023-08-20T01:55:17;16.00;99.90
52849;DHT22;38714;53.180;5.812;2023-08-20T01:57:42;16.00;99.90
52849;DHT22;38714;53.180;5.812;2023-08-20T02:00:09;15.90;99.90
52849;DHT22;38714;53.180;5.812;2023-08-20T02:02:34;15.90;99.90
52849;DHT22;38714;53.180;5.812;2023-08-20T02:05:00;15.90;99.90
52849;DHT22;38714;53.180;5.812;2023-08-20T02:07:26;15.90;99.90
52849;DHT22;38714;53.180;5.812;2023-08-20T02:09:52;15.90;99.90
52849;DHT22;38714;53.180;5.812;2023-08-20T02:12:17;15.90;99.90
52849;DHT22;38714;53.180;5.812;2023-08-20T02:14:43;15.90;99.90
52849;DHT22;38714;53.180;5.812;2023-08-20T02:17:09;15.90;99.90
52849;DHT22;38714;53.180;5.812;2023-08-20T02:19:35;15.90;99.90
52849;DHT22;38714;53.180;5.812;2023-08-20T02:22:00;15.90;99.90
52849;DHT22;38714;53.180;5.812;2023-08-20T02:24:26;15.90;99.90
52849;DHT22;38714;53.180;5.812;2023-08-20T02:26:51;15.90;99.90
52849;DHT22;38714;53.180;5.812;2023-08-20T02:29:17;15.90;99.90
52849;DHT22;38714;53.180;5.812;2023-08-20T02:31:43;15.90;99.90
52849;DHT22;38714;53.180;5.812;2023-08-20T02:34:08;15.90;99.90
52849;DHT22;38714;53.180;5.812;2023-08-20T02:36:34;15.90;99.90
52849;DHT22;38714;53.180;5.812;2023-08-20T02:39:00;15.90;99.90
52849;DHT22;38714;53.180;5.812;2023-08-20T02:41:25;15.90;99.90
52849;DHT22;38714;53.180;5.812;2023-08-20T02:43:51;15.80;99.90
52849;DHT22;38714;53.180;5.812;2023-08-20T02:46:17;15.80;99.90
52849;DHT22;38714;53.180;5.812;2023-08-20T02:48:42;15.80;99.90
52849;DHT22;38714;53.180;5.812;2023-08-20T02:51:08;15.80;99.90
52849;DHT22;38714;53.180;5.812;2023-08-20T02:53:33;15.80;99.90
52849;DHT22;38714;53.180;5.812;2023-08-20T02:55:59;15.80;99.90
52849;DHT22;38714;53.180;5.812;2023-08-20T02:58:25;15.80;99.90
52849;DHT22;38714;53.180;5.812;2023-08-20T03:00:50;15.80;99.90
52849;DHT22;38714;53.180;5.812;2023-08-20T03:03:16;15.80;99.90
52849;DHT22;38714;53.180;5.812;2023-08-20T03:05:42;15.80;99.90
52849;DHT22;38714;53.180;5.812;2023-08-20T03:08:08;15.70;99.90
52849;DHT22;38714;53.180;5.812;2023-08-20T03:10:34;15.70;99.90
52849;DHT22;38714;53.180;5.812;2023-08-20T03:13:00;15.80;99.90
52849;DHT22;38714;53.180;5.812;2023-08-20T03:15:27;15.80;99.90
52849;DHT22;38714;53.180;5.812;2023-08-20T03:17:53;15.80;99.90
52849;DHT22;38714;53.180;5.812;2023-08-20T03:20:19;15.80;99.90
52849;DHT22;38714;53.180;5.812;2023-08-20T03:22:44;15.80;99.90
52849;DHT22;38714;53.180;5.812;2023-08-20T03:25:10;15.80;99.90
52849;DHT22;38714;53.180;5.812;2023-08-20T03:27:35;15.80;99.90
52849;DHT22;38714;53.180;5.812;2023-08-20T03:30:02;15.80;99.90
52849;DHT22;38714;53.180;5.812;2023-08-20T03:32:28;15.70;99.90
52849;DHT22;38714;53.180;5.812;2023-08-20T03:34:53;15.70;99.90
52849;DHT22;38714;53.180;5.812;2023-08-20T03:37:21;15.70;99.90
52849;DHT22;38714;53.180;5.812;2023-08-20T03:39:47;15.70;99.90
52849;DHT22;38714;53.180;5.812;2023-08-20T03:42:13;15.70;99.90
52849;DHT22;38714;53.180;5.812;2023-08-20T03:44:38;15.70;99.90
52849;DHT22;38714;53.180;5.812;2023-08-20T03:47:04;15.70;99.90
52849;DHT22;38714;53.180;5.812;2023-08-20T03:49:30;15.70;99.90
52849;DHT22;38714;53.180;5.812;2023-08-20T03:51:55;15.70;99.90
52849;DHT22;38714;53.180;5.812;2023-08-20T03:54:21;15.70;99.90
52849;DHT22;38714;53.180;5.812;2023-08-20T03:56:47;15.70;99.90
52849;DHT22;38714;53.180;5.812;2023-08-20T03:59:12;15.70;99.90
52849;DHT22;38714;53.180;5.812;2023-08-20T04:01:38;15.70;99.90
52849;DHT22;38714;53.180;5.812;2023-08-20T04:04:04;15.70;99.90
52849;DHT22;38714;53.180;5.812;2023-08-20T04:06:30;15.70;99.90
52849;DHT22;38714;53.180;5.812;2023-08-20T04:08:56;15.70;99.90
52849;DHT22;38714;53.180;5.812;2023-08-20T04:11:21;15.70;99.90
52849;DHT22;38714;53.180;5.812;2023-08-20T04:13:47;15.60;99.90
52849;DHT22;38714;53.180;5.812;2023-08-20T04:16:13;15.60;99.90
52849;DHT22;38714;53.180;5.812;2023-08-20T04:18:39;15.60;99.90
52849;DHT22;38714;53.180;5.812;2023-08-20T04:21:05;15.60;99.90
52849;DHT22;38714;53.180;5.812;2023-08-20T04:23:31;15.60;99.90
52849;DHT22;38714;53.180;5.812;2023-08-20T04:25:56;15.60;99.90
52849;DHT22;38714;53.180;5.812;2023-08-20T04:28:22;15.60;99.90
52849;DHT22;38714;53.180;5.812;2023-08-20T04:30:48;15.60;99.90
52849;DHT22;38714;53.180;5.812;2023-08-20T04:33:14;15.60;99.90
52849;DHT22;38714;53.180;5.812;2023-08-20T04:35:40;15.60;99.90
52849;DHT22;38714;53.180;5.812;2023-08-20T04:38:05;15.50;99.90
52849;DHT22;38714;53.180;5.812;2023-08-20T04:40:31;15.50;99.90
52849;DHT22;38714;53.180;5.812;2023-08-20T04:42:57;15.50;99.90
52849;DHT22;38714;53.180;5.812;2023-08-20T04:45:22;15.50;99.90
52849;DHT22;38714;53.180;5.812;2023-08-20T04:47:48;15.50;99.90
52849;DHT22;38714;53.180;5.812;2023-08-20T04:50:13;15.50;99.90
52849;DHT22;38714;53.180;5.812;2023-08-20T04:52:39;15.50;99.90
52849;DHT22;38714;53.180;5.812;2023-08-20T04:55:05;15.50;99.90
52849;DHT22;38714;53.180;5.812;2023-08-20T04:57:34;15.50;99.90
52849;DHT22;38714;53.180;5.812;2023-08-20T05:00:00;15.50;99.90
52849;DHT22;38714;53.180;5.812;2023-08-20T05:02:26;15.60;99.90
52849;DHT22;38714;53.180;5.812;2023-08-20T05:04:52;15.60;99.90
52849;DHT22;38714;53.180;5.812;2023-08-20T05:07:17;15.60;99.90
52849;DHT22;38714;53.180;5.812;2023-08-20T05:09:43;15.70;99.90
52849;DHT22;38714;53.180;5.812;2023-08-20T05:12:09;15.70;99.90
52849;DHT22;38714;53.180;5.812;2023-08-20T05:14:35;15.70;99.90
52849;DHT22;38714;53.180;5.812;2023-08-20T05:17:01;15.70;99.90
52849;DHT22;38714;53.180;5.812;2023-08-20T05:19:26;15.70;99.90
52849;DHT22;38714;53.180;5.812;2023-08-20T05:21:52;15.80;99.90
52849;DHT22;38714;53.180;5.812;2023-08-20T05:24:24;15.80;99.90
52849;DHT22;38714;53.180;5.812;2023-08-20T05:29:32;15.90;99.90
52849;DHT22;38714;53.180;5.812;2023-08-20T05:31:57;15.90;99.90
52849;DHT22;38714;53.180;5.812;2023-08-20T05:34:23;16.00;99.90
52849;DHT22;38714;53.180;5.812;2023-08-20T05:36:48;16.00;99.90
52849;DHT22;38714;53.180;5.812;2023-08-20T05:39:14;16.10;99.90
52849;DHT22;38714;53.180;5.812;2023-08-20T05:41:40;16.10;99.90
52849;DHT22;38714;53.180;5.812;2023-08-20T05:44:05;16.10;99.90
52849;DHT22;38714;53.180;5.812;2023-08-20T05:46:31;16.20;99.90
52849;DHT22;38714;53.180;5.812;2023-08-20T05:48:56;16.20;99.90
52849;DHT22;38714;53.180;5.812;2023-08-20T05:51:22;16.20;99.90
52849;DHT22;38714;53.180;5.812;2023-08-20T05:53:47;16.30;99.90
52849;DHT22;38714;53.180;5.812;2023-08-20T05:56:13;16.30;99.90
52849;DHT22;38714;53.180;5.812;2023-08-20T05:58:39;16.40;99.90
52849;DHT22;38714;53.180;5.812;2023-08-20T06:01:04;16.40;99.90
52849;DHT22;38714;53.180;5.812;2023-08-20T06:03:30;16.50;99.90
52849;DHT22;38714;53.180;5.812;2023-08-20T06:05:58;16.60;99.90
52849;DHT22;38714;53.180;5.812;2023-08-20T06:08:24;16.60;99.90
52849;DHT22;38714;53.180;5.812;2023-08-20T06:10:50;16.70;99.90
52849;DHT22;38714;53.180;5.812;2023-08-20T06:13:16;16.70;99.90
52849;DHT22;38714;53.180;5.812;2023-08-20T06:15:41;16.80;99.90
52849;DHT22;38714;53.180;5.812;2023-08-20T06:18:07;16.80;99.90
52849;DHT22;38714;53.180;5.812;2023-08-20T06:20:33;16.90;99.90
52849;DHT22;38714;53.180;5.812;2023-08-20T06:22:58;17.00;99.90
52849;DHT22;38714;53.180;5.812;2023-08-20T06:25:24;17.00;99.90
52849;DHT22;38714;53.180;5.812;2023-08-20T06:27:50;17.10;99.90
52849;DHT22;38714;53.180;5.812;2023-08-20T06:30:15;17.10;99.90
52849;DHT22;38714;53.180;5.812;2023-08-20T06:32:43;17.20;99.90
52849;DHT22;38714;53.180;5.812;2023-08-20T06:35:09;17.20;99.90
52849;DHT22;38714;53.180;5.812;2023-08-20T06:37:35;17.30;99.90
52849;DHT22;38714;53.180;5.812;2023-08-20T06:40:01;17.30;99.90
52849;DHT22;38714;53.180;5.812;2023-08-20T06:42:26;17.40;99.90
52849;DHT22;38714;53.180;5.812;2023-08-20T06:44:52;17.40;99.90
52849;DHT22;38714;53.180;5.812;2023-08-20T06:47:18;17.40;99.90
52849;DHT22;38714;53.180;5.812;2023-08-20T06:49:43;17.50;99.90
52849;DHT22;38714;53.180;5.812;2023-08-20T06:52:09;17.50;99.90
52849;DHT22;38714;53.180;5.812;2023-08-20T06:54:35;17.50;99.90
52849;DHT22;38714;53.180;5.812;2023-08-20T06:57:00;17.60;99.90
52849;DHT22;38714;53.180;5.812;2023-08-20T06:59:26;17.70;99.90
52849;DHT22;38714;53.180;5.812;2023-08-20T07:01:52;17.80;99.90
52849;DHT22;38714;53.180;5.812;2023-08-20T07:04:18;17.80;99.90
52849;DHT22;38714;53.180;5.812;2023-08-20T07:06:44;17.90;99.90
52849;DHT22;38714;53.180;5.812;2023-08-20T07:09:09;17.90;99.90
52849;DHT22;38714;53.180;5.812;2023-08-20T07:11:35;18.00;99.90
52849;DHT22;38714;53.180;5.812;2023-08-20T07:14:01;18.00;99.90
52849;DHT22;38714;53.180;5.812;2023-08-20T07:16:26;18.10;99.90
52849;DHT22;38714;53.180;5.812;2023-08-20T07:18:52;18.10;99.90
52849;DHT22;38714;53.180;5.812;2023-08-20T07:21:18;18.20;99.90
52849;DHT22;38714;53.180;5.812;2023-08-20T07:23:44;18.20;99.90
52849;DHT22;38714;53.180;5.812;2023-08-20T07:26:10;18.20;99.90
52849;DHT22;38714;53.180;5.812;2023-08-20T07:28:37;18.30;99.90
52849;DHT22;38714;53.180;5.812;2023-08-20T07:31:22;18.30;99.90
52849;DHT22;38714;53.180;5.812;2023-08-20T07:33:49;18.40;99.90
52849;DHT22;38714;53.180;5.812;2023-08-20T07:36:15;18.40;99.90
52849;DHT22;38714;53.180;5.812;2023-08-20T07:38:42;18.50;99.90
52849;DHT22;38714;53.180;5.812;2023-08-20T07:41:11;18.50;99.90
52849;DHT22;38714;53.180;5.812;2023-08-20T07:43:38;18.60;99.90
52849;DHT22;38714;53.180;5.812;2023-08-20T07:46:04;18.60;99.90
52849;DHT22;38714;53.180;5.812;2023-08-20T07:48:30;18.60;99.90
52849;DHT22;38714;53.180;5.812;2023-08-20T07:50:56;18.60;99.90
52849;DHT22;38714;53.180;5.812;2023-08-20T07:53:21;18.60;99.90
52849;DHT22;38714;53.180;5.812;2023-08-20T07:55:47;18.70;99.90
52849;DHT22;38714;53.180;5.812;2023-08-20T07:58:13;18.70;99.90
52849;DHT22;38714;53.180;5.812;2023-08-20T08:00:38;18.80;99.90
52849;DHT22;38714;53.180;5.812;2023-08-20T08:03:04;18.80;99.90
52849;DHT22;38714;53.180;5.812;2023-08-20T08:05:30;18.80;99.90
52849;DHT22;38714;53.180;5.812;2023-08-20T08:07:55;18.80;99.90
52849;DHT22;38714;53.180;5.812;2023-08-20T08:10:21;18.90;99.90
52849;DHT22;38714;53.180;5.812;2023-08-20T08:12:47;18.90;99.90
52849;DHT22;38714;53.180;5.812;2023-08-20T08:15:13;18.90;99.90
52849;DHT22;38714;53.180;5.812;2023-08-20T08:17:39;18.90;99.90
52849;DHT22;38714;53.180;5.812;2023-08-20T08:20:05;19.00;99.90
52849;DHT22;38714;53.180;5.812;2023-08-20T08:22:31;19.00;99.90
52849;DHT22;38714;53.180;5.812;2023-08-20T08:24:57;19.10;99.90
52849;DHT22;38714;53.180;5.812;2023-08-20T08:27:22;19.10;99.90
52849;DHT22;38714;53.180;5.812;2023-08-20T08:29:48;19.20;99.90
52849;DHT22;38714;53.180;5.812;2023-08-20T08:32:14;19.20;99.90
52849;DHT22;38714;53.180;5.812;2023-08-20T08:34:39;19.20;99.90
52849;DHT22;38714;53.180;5.812;2023-08-20T08:37:05;19.20;99.90
52849;DHT22;38714;53.180;5.812;2023-08-20T08:39:31;19.20;99.90
52849;DHT22;38714;53.180;5.812;2023-08-20T08:42:04;19.30;99.90
52849;DHT22;38714;53.180;5.812;2023-08-20T08:44:34;19.30;99.90
52849;DHT22;38714;53.180;5.812;2023-08-20T08:47:01;19.30;99.90
52849;DHT22;38714;53.180;5.812;2023-08-20T08:49:27;19.30;99.90
52849;DHT22;38714;53.180;5.812;2023-08-20T08:51:56;19.40;99.90
52849;DHT22;38714;53.180;5.812;2023-08-20T08:54:22;19.40;99.90
52849;DHT22;38714;53.180;5.812;2023-08-20T08:56:49;19.50;99.90
52849;DHT22;38714;53.180;5.812;2023-08-20T08:59:15;19.60;99.90
52849;DHT22;38714;53.180;5.812;2023-08-20T09:01:41;19.70;99.90
52849;DHT22;38714;53.180;5.812;2023-08-20T09:04:07;19.60;99.90
52849;DHT22;38714;53.180;5.812;2023-08-20T09:09:12;19.60;99.90
52849;DHT22;38714;53.180;5.812;2023-08-20T09:11:38;19.70;99.90
52849;DHT22;38714;53.180;5.812;2023-08-20T09:14:04;19.70;99.90
52849;DHT22;38714;53.180;5.812;2023-08-20T09:16:30;19.80;99.90
52849;DHT22;38714;53.180;5.812;2023-08-20T09:18:59;19.80;99.90
52849;DHT22;38714;53.180;5.812;2023-08-20T09:21:29;19.80;99.90
52849;DHT22;38714;53.180;5.812;2023-08-20T09:23:57;19.80;99.90
52849;DHT22;38714;53.180;5.812;2023-08-20T09:26:23;19.90;99.90
52849;DHT22;38714;53.180;5.812;2023-08-20T09:28:49;20.00;99.90
52849;DHT22;38714;53.180;5.812;2023-08-20T09:31:15;20.10;99.90
52849;DHT22;38714;53.180;5.812;2023-08-20T09:33:54;20.10;99.90
52849;DHT22;38714;53.180;5.812;2023-08-20T09:36:30;20.10;99.90
52849;DHT22;38714;53.180;5.812;2023-08-20T09:38:56;20.20;99.90
52849;DHT22;38714;53.180;5.812;2023-08-20T09:41:22;20.20;99.90
52849;DHT22;38714;53.180;5.812;2023-08-20T09:43:48;20.20;99.90
52849;DHT22;38714;53.180;5.812;2023-08-20T09:46:19;20.20;99.90
52849;DHT22;38714;53.180;5.812;2023-08-20T09:48:48;20.20;99.90
52849;DHT22;38714;53.180;5.812;2023-08-20T09:51:19;20.20;99.90
52849;DHT22;38714;53.180;5.812;2023-08-20T09:56:27;20.30;99.90
52849;DHT22;38714;53.180;5.812;2023-08-20T09:58:54;20.40;99.90
52849;DHT22;38714;53.180;5.812;2023-08-20T10:01:20;20.50;99.90
52849;DHT22;38714;53.180;5.812;2023-08-20T10:03:46;20.50;99.90
52849;DHT22;38714;53.180;5.812;2023-08-20T10:06:12;20.60;99.90
52849;DHT22;38714;53.180;5.812;2023-08-20T10:08:38;20.60;99.90
52849;DHT22;38714;53.180;5.812;2023-08-20T10:11:04;20.70;99.90
52849;DHT22;38714;53.180;5.812;2023-08-20T10:13:29;20.70;99.90
52849;DHT22;38714;53.180;5.812;2023-08-20T10:15:56;20.80;99.90
52849;DHT22;38714;53.180;5.812;2023-08-20T10:18:22;20.80;99.90
52849;DHT22;38714;53.180;5.812;2023-08-20T10:20:50;20.70;99.90
52849;DHT22;38714;53.180;5.812;2023-08-20T10:23:21;20.80;99.90
52849;DHT22;38714;53.180;5.812;2023-08-20T10:25:52;20.80;99.90
52849;DHT22;38714;53.180;5.812;2023-08-20T10:28:23;20.80;99.90
52849;DHT22;38714;53.180;5.812;2023-08-20T10:31:09;20.80;99.90
52849;DHT22;38714;53.180;5.812;2023-08-20T10:33:38;20.80;99.90
52849;DHT22;38714;53.180;5.812;2023-08-20T10:38:45;20.80;99.90
52849;DHT22;38714;53.180;5.812;2023-08-20T10:41:11;20.70;99.90
52849;DHT22;38714;53.180;5.812;2023-08-20T10:43:38;20.80;99.90
52849;DHT22;38714;53.180;5.812;2023-08-20T10:48:33;20.80;99.90
52849;DHT22;38714;53.180;5.812;2023-08-20T10:51:11;20.80;99.90
52849;DHT22;38714;53.180;5.812;2023-08-20T10:53:37;20.90;99.90
52849;DHT22;38714;53.180;5.812;2023-08-20T10:56:16;20.90;99.90
52849;DHT22;38714;53.180;5.812;2023-08-20T10:58:44;20.90;99.90
52849;DHT22;38714;53.180;5.812;2023-08-20T11:01:21;20.90;99.90
52849;DHT22;38714;53.180;5.812;2023-08-20T11:03:51;20.90;99.90
52849;DHT22;38714;53.180;5.812;2023-08-20T11:06:17;20.90;99.90
52849;DHT22;38714;53.180;5.812;2023-08-20T11:08:44;20.90;99.90
52849;DHT22;38714;53.180;5.812;2023-08-20T11:11:11;21.00;99.90
52849;DHT22;38714;53.180;5.812;2023-08-20T11:13:37;21.20;99.90
52849;DHT22;38714;53.180;5.812;2023-08-20T11:16:04;21.20;99.90
52849;DHT22;38714;53.180;5.812;2023-08-20T11:18:32;21.20;99.90
52849;DHT22;38714;53.180;5.812;2023-08-20T11:20:59;21.20;99.90
52849;DHT22;38714;53.180;5.812;2023-08-20T11:23:25;21.30;99.90
52849;DHT22;38714;53.180;5.812;2023-08-20T11:25:51;21.40;99.90
52849;DHT22;38714;53.180;5.812;2023-08-20T11:28:17;21.40;99.90
52849;DHT22;38714;53.180;5.812;2023-08-20T11:30:43;21.40;99.90
52849;DHT22;38714;53.180;5.812;2023-08-20T11:33:09;21.40;99.90
52849;DHT22;38714;53.180;5.812;2023-08-20T11:35:35;21.40;99.90
52849;DHT22;38714;53.180;5.812;2023-08-20T11:38:03;21.40;99.90
52849;DHT22;38714;53.180;5.812;2023-08-20T11:40:29;21.40;99.90
52849;DHT22;38714;53.180;5.812;2023-08-20T11:42:55;21.40;99.90
52849;DHT22;38714;53.180;5.812;2023-08-20T11:45:20;21.40;99.90
52849;DHT22;38714;53.180;5.812;2023-08-20T11:47:46;21.30;99.90
52849;DHT22;38714;53.180;5.812;2023-08-20T11:50:12;21.40;99.90
52849;DHT22;38714;53.180;5.812;2023-08-20T11:52:38;21.40;99.90
52849;DHT22;38714;53.180;5.812;2023-08-20T11:55:07;21.40;99.90
52849;DHT22;38714;53.180;5.812;2023-08-20T11:57:33;21.40;99.90
52849;DHT22;38714;53.180;5.812;2023-08-20T12:00:05;21.40;99.90
52849;DHT22;38714;53.180;5.812;2023-08-20T12:02:41;21.50;99.90
52849;DHT22;38714;53.180;5.812;2023-08-20T12:05:07;21.50;99.90
52849;DHT22;38714;53.180;5.812;2023-08-20T12:07:33;21.50;99.90
52849;DHT22;38714;53.180;5.812;2023-08-20T12:10:06;21.50;99.90
52849;DHT22;38714;53.180;5.812;2023-08-20T12:12:44;21.50;99.90
52849;DHT22;38714;53.180;5.812;2023-08-20T12:15:10;21.50;99.90
52849;DHT22;38714;53.180;5.812;2023-08-20T12:17:36;21.50;99.90
52849;DHT22;38714;53.180;5.812;2023-08-20T12:20:01;21.50;99.90
52849;DHT22;38714;53.180;5.812;2023-08-20T12:22:35;21.60;99.90
52849;DHT22;38714;53.180;5.812;2023-08-20T12:25:01;21.60;99.90
52849;DHT22;38714;53.180;5.812;2023-08-20T12:27:26;21.60;99.90
52849;DHT22;38714;53.180;5.812;2023-08-20T12:29:53;21.60;99.90
52849;DHT22;38714;53.180;5.812;2023-08-20T12:32:18;21.60;99.90
52849;DHT22;38714;53.180;5.812;2023-08-20T12:34:44;21.60;99.90
52849;DHT22;38714;53.180;5.812;2023-08-20T12:37:09;21.60;99.90
52849;DHT22;38714;53.180;5.812;2023-08-20T12:39:35;21.70;99.90
52849;DHT22;38714;53.180;5.812;2023-08-20T12:42:01;21.70;99.90
52849;DHT22;38714;53.180;5.812;2023-08-20T12:44:26;21.70;99.90
52849;DHT22;38714;53.180;5.812;2023-08-20T12:46:52;21.70;99.90
52849;DHT22;38714;53.180;5.812;2023-08-20T12:49:18;21.70;99.90
52849;DHT22;38714;53.180;5.812;2023-08-20T12:51:43;21.80;99.90
52849;DHT22;38714;53.180;5.812;2023-08-20T12:54:09;21.80;99.90
52849;DHT22;38714;53.180;5.812;2023-08-20T12:56:34;21.80;99.90
52849;DHT22;38714;53.180;5.812;2023-08-20T12:59:00;21.80;99.90
52849;DHT22;38714;53.180;5.812;2023-08-20T13:01:25;21.80;99.90
52849;DHT22;38714;53.180;5.812;2023-08-20T13:03:52;21.80;99.90
52849;DHT22;38714;53.180;5.812;2023-08-20T13:06:17;21.80;99.90
52849;DHT22;38714;53.180;5.812;2023-08-20T13:08:43;21.80;99.90
52849;DHT22;38714;53.180;5.812;2023-08-20T13:11:11;21.80;99.90
52849;DHT22;38714;53.180;5.812;2023-08-20T13:13:39;21.80;99.90
52849;DHT22;38714;53.180;5.812;2023-08-20T13:16:05;21.90;99.90
52849;DHT22;38714;53.180;5.812;2023-08-20T13:18:31;21.90;99.90
52849;DHT22;38714;53.180;5.812;2023-08-20T13:20:57;21.90;99.90
52849;DHT22;38714;53.180;5.812;2023-08-20T13:23:22;21.90;99.90
52849;DHT22;38714;53.180;5.812;2023-08-20T13:25:49;21.90;99.90
52849;DHT22;38714;53.180;5.812;2023-08-20T13:28:14;21.90;99.90
52849;DHT22;38714;53.180;5.812;2023-08-20T13:30:40;22.00;99.90
52849;DHT22;38714;53.180;5.812;2023-08-20T13:33:06;21.90;99.90
52849;DHT22;38714;53.180;5.812;2023-08-20T13:35:32;21.90;99.90
52849;DHT22;38714;53.180;5.812;2023-08-20T13:37:58;22.00;99.90
52849;DHT22;38714;53.180;5.812;2023-08-20T13:40:23;22.00;99.90
52849;DHT22;38714;53.180;5.812;2023-08-20T13:42:49;22.00;99.90
52849;DHT22;38714;53.180;5.812;2023-08-20T13:45:15;22.00;99.90
52849;DHT22;38714;53.180;5.812;2023-08-20T13:47:41;22.00;99.90
52849;DHT22;38714;53.180;5.812;2023-08-20T13:50:06;22.00;99.90
52849;DHT22;38714;53.180;5.812;2023-08-20T13:52:32;22.00;99.90
52849;DHT22;38714;53.180;5.812;2023-08-20T13:54:58;22.00;99.90
52849;DHT22;38714;53.180;5.812;2023-08-20T13:57:23;22.00;99.90
52849;DHT22;38714;53.180;5.812;2023-08-20T13:59:49;22.00;99.90
52849;DHT22;38714;53.180;5.812;2023-08-20T14:02:15;22.00;99.90
52849;DHT22;38714;53.180;5.812;2023-08-20T14:04:40;22.00;99.90
52849;DHT22;38714;53.180;5.812;2023-08-20T14:07:06;22.00;99.90
52849;DHT22;38714;53.180;5.812;2023-08-20T14:09:31;22.00;99.90
52849;DHT22;38714;53.180;5.812;2023-08-20T14:12:00;22.00;99.90
52849;DHT22;38714;53.180;5.812;2023-08-20T14:14:25;22.10;99.90
52849;DHT22;38714;53.180;5.812;2023-08-20T14:16:53;22.10;99.90
52849;DHT22;38714;53.180;5.812;2023-08-20T14:19:18;22.00;99.90
52849;DHT22;38714;53.180;5.812;2023-08-20T14:21:44;21.90;99.90
52849;DHT22;38714;53.180;5.812;2023-08-20T14:24:09;21.90;99.90
52849;DHT22;38714;53.180;5.812;2023-08-20T14:26:35;21.90;99.90
52849;DHT22;38714;53.180;5.812;2023-08-20T14:29:01;22.00;99.90
52849;DHT22;38714;53.180;5.812;2023-08-20T14:31:26;22.00;99.90
52849;DHT22;38714;53.180;5.812;2023-08-20T14:33:52;22.00;99.90
52849;DHT22;38714;53.180;5.812;2023-08-20T14:36:18;22.10;99.90
52849;DHT22;38714;53.180;5.812;2023-08-20T14:38:44;22.10;99.90
52849;DHT22;38714;53.180;5.812;2023-08-20T14:41:09;22.10;99.90
52849;DHT22;38714;53.180;5.812;2023-08-20T14:43:35;22.10;99.90
52849;DHT22;38714;53.180;5.812;2023-08-20T14:46:01;22.10;99.90
52849;DHT22;38714;53.180;5.812;2023-08-20T14:48:26;22.10;99.90
52849;DHT22;38714;53.180;5.812;2023-08-20T14:50:53;22.10;99.90
52849;DHT22;38714;53.180;5.812;2023-08-20T14:53:18;22.20;99.90
52849;DHT22;38714;53.180;5.812;2023-08-20T14:55:45;22.20;99.90
52849;DHT22;38714;53.180;5.812;2023-08-20T14:58:11;22.10;99.90
52849;DHT22;38714;53.180;5.812;2023-08-20T15:00:37;22.10;99.90
52849;DHT22;38714;53.180;5.812;2023-08-20T15:03:03;22.10;99.90
52849;DHT22;38714;53.180;5.812;2023-08-20T15:05:29;22.10;99.90
52849;DHT22;38714;53.180;5.812;2023-08-20T15:07:55;22.10;99.90
52849;DHT22;38714;53.180;5.812;2023-08-20T15:10:20;22.10;99.90
52849;DHT22;38714;53.180;5.812;2023-08-20T15:12:46;22.10;99.90
52849;DHT22;38714;53.180;5.812;2023-08-20T15:15:12;22.10;99.90
52849;DHT22;38714;53.180;5.812;2023-08-20T15:17:38;22.10;99.90
52849;DHT22;38714;53.180;5.812;2023-08-20T15:20:04;22.10;99.90
52849;DHT22;38714;53.180;5.812;2023-08-20T15:22:31;22.10;99.90
52849;DHT22;38714;53.180;5.812;2023-08-20T15:24:57;22.10;99.90
52849;DHT22;38714;53.180;5.812;2023-08-20T15:27:25;22.00;99.90
52849;DHT22;38714;53.180;5.812;2023-08-20T15:29:51;22.00;99.90
52849;DHT22;38714;53.180;5.812;2023-08-20T15:32:17;22.00;99.90
52849;DHT22;38714;53.180;5.812;2023-08-20T15:34:43;22.00;99.90
52849;DHT22;38714;53.180;5.812;2023-08-20T15:37:09;22.00;99.90
52849;DHT22;38714;53.180;5.812;2023-08-20T15:39:34;22.00;99.90
52849;DHT22;38714;53.180;5.812;2023-08-20T15:42:01;22.00;99.90
52849;DHT22;38714;53.180;5.812;2023-08-20T15:44:26;22.00;99.90
52849;DHT22;38714;53.180;5.812;2023-08-20T15:46:52;22.00;99.90
52849;DHT22;38714;53.180;5.812;2023-08-20T15:49:18;22.00;99.90